Terminal Aerodrome Forecast
Issued by NWS Chicago, IL

Home | Current Version | Previous Version | Text Only | Print | Product List | Glossary Off
Versions: 1 2 3 4 5 6 7 8 9 10 11 12 13 14 15 16 17 18 19 20 21 22 23 24 25

777
FTUS43 KLOT 010854 AAA
TAFRFD
TAF AMD
KRFD 010854Z 0109/0206 25011G16KT P6SM -SHSN OVC012
      TEMPO 0109/0111 OVC009
     FM011100 27012G18KT P6SM OVC010
     FM011500 27013G21KT P6SM OVC015
     FM020100 29007KT P6SM OVC020=

USA.gov is the U.S. government's official web portal to all federal, state and local government web resources and services.